Terminal Aerodrome Forecast
Issued by NWS

Home | Current Version | Previous Version | Graphics & Text | Print | Product List | Glossary On
Versions: 1 2 3 4 5 6 7 8 9 10 11 12 13 14 15 16 17 18 19 20
349
FTUS43 KMPX 232325
TAFRNH
TAF
KRNH 232325Z 2400/2424 13007KT P6SM SCT050 BKN250
     FM240600 18008KT P6SM VCTS BKN060CB
     FM240900 20007KT P6SM SCT250
     FM241700 28010G17KT P6SM SCT250=

USA.gov is the U.S. government's official web portal to all federal, state and local government web resources and services.